Time;durP1;ratioP1;P1;durP2;ratioP2;P2;SDS_P1;SDS_P2;PMS_P1;PMS_P2;Temp;Humidity;BMP_temperature;BMP_pressure;BME280_temperature;BME280_humidity;BME280_pressure;Samples;Min_cycle;Max_cycle;Signal;HPM_P1;HPM_P2
2023/07/14 00:00:20;;;;;;;1.40;1.30;;;24.70;46.20;;;;;;4999416;28;20449;-62
2023/07/14 00:02:47;;;;;;;1.30;1.20;;;24.70;46.10;;;;;;4996279;28;20232;-62
2023/07/14 00:05:18;;;;;;;1.30;1.20;;;24.70;46.10;;;;;;4996407;28;20483;-64
2023/07/14 00:07:46;;;;;;;1.20;1.10;;;24.70;46.10;;;;;;4995786;28;20442;-63
2023/07/14 00:10:23;;;;;;;1.23;1.13;;;24.70;46.90;;;;;;4998028;28;20456;-62
2023/07/14 00:12:51;;;;;;;1.17;1.13;;;24.70;46.10;;;;;;4998240;28;20441;-62
2023/07/14 00:15:18;;;;;;;1.30;1.20;;;24.70;46.10;;;;;;4998354;28;20532;-63
2023/07/14 00:17:44;;;;;;;1.17;1.10;;;24.70;46.10;;;;;;4997728;28;20525;-64
2023/07/14 00:20:32;;;;;;;1.20;1.10;;;24.70;46.10;;;;;;4997404;28;21190;-63
2023/07/14 00:22:58;;;;;;;1.30;1.20;;;24.70;46.10;;;;;;4997121;28;20482;-63
2023/07/14 00:25:25;;;;;;;1.10;1.10;;;24.70;46.20;;;;;;4997355;28;20537;-63
2023/07/14 00:27:52;;;;;;;1.30;1.20;;;24.70;46.20;;;;;;4995497;28;20310;-64
2023/07/14 00:30:19;;;;;;;1.23;1.13;;;24.70;46.10;;;;;;4998214;28;20457;-63
2023/07/14 00:32:46;;;;;;;1.30;1.20;;;24.70;46.20;;;;;;4995441;28;20465;-63
2023/07/14 00:35:18;;;;;;;1.30;1.20;;;24.70;46.10;;;;;;4981482;28;20451;-63
2023/07/14 00:37:44;;;;;;;1.30;1.20;;;24.70;46.10;;;;;;4996023;28;20446;-62
2023/07/14 00:40:14;;;;;;;1.30;1.20;;;24.70;46.10;;;;;;4996891;28;21039;-63
2023/07/14 00:42:40;;;;;;;1.33;1.20;;;24.70;46.10;;;;;;4996723;28;20238;-63
2023/07/14 00:45:17;;;;;;;1.30;1.20;;;24.70;46.20;;;;;;4995916;28;20452;-64
2023/07/14 00:47:45;;;;;;;1.10;1.10;;;24.70;46.10;;;;;;4996745;28;20314;-63
2023/07/14 00:50:29;;;;;;;1.27;1.17;;;24.70;46.10;;;;;;4995425;28;20936;-62
2023/07/14 00:52:58;;;;;;;1.27;1.17;;;24.70;46.10;;;;;;4972629;28;20444;-63
2023/07/14 00:55:24;;;;;;;1.00;1.00;;;24.70;46.10;;;;;;4997409;28;21003;-62
2023/07/14 00:57:53;;;;;;;1.10;1.00;;;24.70;46.20;;;;;;4993423;28;20449;-62
2023/07/14 01:00:26;;;;;;;1.67;1.13;;;24.70;46.20;;;;;;4994992;28;21017;-62
2023/07/14 01:02:51;;;;;;;1.20;1.20;;;24.70;46.20;;;;;;4995950;28;20473;-63
2023/07/14 01:05:18;;;;;;;1.20;1.10;;;24.70;46.10;;;;;;4995612;28;20460;-64
2023/07/14 01:07:46;;;;;;;1.13;1.07;;;24.70;46.10;;;;;;4996391;28;20231;-62
2023/07/14 01:10:15;;;;;;;1.20;1.10;;;24.70;46.90;;;;;;4996469;28;20449;-63
2023/07/14 01:12:46;;;;;;;1.20;1.10;;;24.70;46.20;;;;;;4998045;28;21352;-62
2023/07/14 01:15:12;;;;;;;1.30;1.20;;;24.70;46.20;;;;;;4996212;28;20459;-64
2023/07/14 01:17:38;;;;;;;1.20;1.10;;;24.70;46.20;;;;;;4994176;28;20462;-62
2023/07/14 01:20:09;;;;;;;1.40;1.30;;;24.70;46.10;;;;;;4993860;28;20231;-63
2023/07/14 01:22:38;;;;;;;1.10;1.00;;;24.70;46.20;;;;;;4991946;28;20479;-63
2023/07/14 01:25:26;;;;;;;1.30;1.20;;;24.70;46.20;;;;;;4994741;28;20464;-63
2023/07/14 01:27:52;;;;;;;1.20;1.10;;;24.70;46.20;;;;;;4995592;28;20993;-63
2023/07/14 01:30:19;;;;;;;1.40;1.30;;;24.70;46.20;;;;;;4995836;28;20519;-63
2023/07/14 01:32:47;;;;;;;1.37;1.27;;;24.70;46.20;;;;;;4993335;28;20560;-63
2023/07/14 01:35:13;;;;;;;1.03;1.00;;;24.70;47.00;;;;;;4996872;28;20441;-64
2023/07/14 01:37:39;;;;;;;1.07;1.07;;;24.70;46.20;;;;;;4995134;28;20954;-63
2023/07/14 01:40:11;;;;;;;1.30;1.20;;;24.70;46.20;;;;;;4997523;28;20476;-62
2023/07/14 01:42:38;;;;;;;1.33;1.23;;;24.70;46.20;;;;;;4994138;28;20531;-64
2023/07/14 01:45:09;;;;;;;1.40;1.30;;;24.70;46.20;;;;;;4995414;28;20464;-63
2023/07/14 01:47:36;;;;;;;1.20;1.20;;;24.70;46.20;;;;;;4997134;28;20460;-63
2023/07/14 01:50:02;;;;;;;1.30;1.20;;;24.70;46.20;;;;;;4994078;28;20465;-63
2023/07/14 01:52:30;;;;;;;1.40;1.30;;;24.70;46.20;;;;;;4992751;28;20462;-64
2023/07/14 01:55:04;;;;;;;1.30;1.20;;;24.70;46.20;;;;;;4996378;28;20471;-63
2023/07/14 01:57:33;;;;;;;1.10;1.10;;;24.70;46.20;;;;;;4993595;28;20450;-63
2023/07/14 02:00:04;;;;;;;1.40;1.30;;;24.70;46.20;;;;;;4995093;28;20524;-63
2023/07/14 02:02:33;;;;;;;1.30;1.20;;;24.60;46.10;;;;;;4993108;28;20473;-63
2023/07/14 02:05:27;;;;;;;1.27;1.17;;;24.70;46.20;;;;;;4998290;28;20980;-62
2023/07/14 02:07:56;;;;;;;1.40;1.30;;;24.70;46.20;;;;;;4989752;28;20448;-63
2023/07/14 02:10:22;;;;;;;1.23;1.23;;;24.70;46.20;;;;;;4992758;28;20838;-63
2023/07/14 02:12:49;;;;;;;1.33;1.23;;;24.70;46.20;;;;;;4993532;28;20460;-63
2023/07/14 02:15:23;;;;;;;1.23;1.13;;;24.60;46.10;;;;;;4993619;28;20233;-63
2023/07/14 02:17:50;;;;;;;1.30;1.20;;;24.60;46.10;;;;;;4993118;28;20479;-63
2023/07/14 02:20:29;;;;;;;1.30;1.20;;;24.70;46.20;;;;;;4993761;28;20464;-63
2023/07/14 02:22:57;;;;;;;1.00;1.00;;;24.60;46.10;;;;;;4993755;28;20469;-63
2023/07/14 02:25:25;;;;;;;1.10;1.10;;;24.60;46.20;;;;;;4997047;28;20465;-63
2023/07/14 02:27:51;;;;;;;1.27;1.17;;;24.60;46.10;;;;;;4996809;28;20472;-63
2023/07/14 02:30:21;;;;;;;1.77;1.20;;;24.70;46.20;;;;;;4995428;28;20644;-63
2023/07/14 02:32:55;;;;;;;1.40;1.30;;;24.60;46.10;;;;;;4993237;28;20215;-63
2023/07/14 02:35:33;;;;;;;1.30;1.20;;;24.60;46.10;;;;;;4995126;28;20725;-63
2023/07/14 02:38:03;;;;;;;1.40;1.30;;;24.60;46.10;;;;;;4994039;28;20465;-63
2023/07/14 02:40:38;;;;;;;1.20;1.10;;;24.60;46.20;;;;;;4994630;28;20457;-63
2023/07/14 02:43:08;;;;;;;1.13;1.10;;;24.60;46.20;;;;;;4995593;28;20471;-63
2023/07/14 02:45:41;;;;;;;1.40;1.30;;;24.60;46.20;;;;;;4997154;28;20446;-63
2023/07/14 02:48:11;;;;;;;1.30;1.20;;;24.60;46.10;;;;;;4997480;28;20436;-62
2023/07/14 02:50:36;;;;;;;1.23;1.13;;;24.60;46.20;;;;;;4999182;28;20448;-63
2023/07/14 02:53:02;;;;;;;1.40;1.30;;;24.60;46.20;;;;;;4997722;28;20808;-63
2023/07/14 02:55:27;;;;;;;1.20;1.10;;;24.60;46.20;;;;;;4994992;28;20255;-63
2023/07/14 02:57:53;;;;;;;1.40;1.30;;;24.60;46.20;;;;;;4997771;28;20223;-63
2023/07/14 03:00:19;;;;;;;1.30;1.20;;;24.60;46.20;;;;;;5001259;28;20223;-63
2023/07/14 03:02:44;;;;;;;1.40;1.30;;;24.60;46.10;;;;;;4996242;28;20234;-63
2023/07/14 03:05:11;;;;;;;1.30;1.20;;;24.60;46.20;;;;;;4999460;28;20449;-63
2023/07/14 03:07:37;;;;;;;1.33;1.23;;;24.60;46.20;;;;;;4997576;28;20223;-63
2023/07/14 03:10:04;;;;;;;1.23;1.13;;;24.60;46.20;;;;;;5000149;28;20460;-63
2023/07/14 03:12:29;;;;;;;1.40;1.30;;;24.60;46.20;;;;;;4997483;28;20531;-63
2023/07/14 03:14:55;;;;;;;1.40;1.30;;;24.60;46.20;;;;;;4998653;28;20480;-63
2023/07/14 03:17:21;;;;;;;1.10;1.10;;;24.60;46.20;;;;;;4999499;28;20236;-62
2023/07/14 03:19:47;;;;;;;1.10;1.00;;;24.60;46.20;;;;;;4999592;28;20699;-63
2023/07/14 03:22:12;;;;;;;1.40;1.30;;;24.60;46.20;;;;;;4998351;28;20464;-63
2023/07/14 03:24:39;;;;;;;1.30;1.20;;;24.70;46.20;;;;;;4998975;28;20270;-63
2023/07/14 03:27:04;;;;;;;1.17;1.10;;;24.60;46.20;;;;;;4998808;28;20298;-63
2023/07/14 03:29:30;;;;;;;1.07;1.03;;;24.60;46.20;;;;;;4994797;28;20572;-63
2023/07/14 03:31:55;;;;;;;1.10;1.10;;;24.60;46.10;;;;;;4996857;28;20227;-62
2023/07/14 03:34:22;;;;;;;1.87;1.40;;;24.60;46.20;;;;;;4999243;28;20258;-63
2023/07/14 03:36:48;;;;;;;1.20;1.10;;;24.60;46.20;;;;;;4981075;28;20227;-63
2023/07/14 03:39:21;;;;;;;1.40;1.30;;;24.60;46.20;;;;;;4993696;28;20500;-62
2023/07/14 03:41:47;;;;;;;1.40;1.30;;;24.60;46.20;;;;;;4996712;28;20497;-62
2023/07/14 03:44:13;;;;;;;1.20;1.10;;;24.60;46.20;;;;;;4993833;28;20561;-62
2023/07/14 03:46:38;;;;;;;1.03;1.00;;;24.60;46.20;;;;;;4997517;28;20253;-62
2023/07/14 03:49:04;;;;;;;1.40;1.30;;;24.60;46.20;;;;;;4998202;28;20223;-62
2023/07/14 03:51:30;;;;;;;1.30;1.20;;;24.60;46.20;;;;;;4998517;28;20238;-62
2023/07/14 03:53:56;;;;;;;1.30;1.20;;;24.60;46.20;;;;;;4998750;28;20444;-62
2023/07/14 03:56:22;;;;;;;1.30;1.20;;;24.60;46.20;;;;;;4996463;28;20823;-62
2023/07/14 03:58:47;;;;;;;1.40;1.30;;;24.60;46.20;;;;;;4993813;28;20851;-64
2023/07/14 04:01:14;;;;;;;1.67;1.10;;;24.60;46.20;;;;;;4998225;28;20238;-62
2023/07/14 04:03:39;;;;;;;1.20;1.10;;;24.60;46.20;;;;;;4997670;28;20291;-62
2023/07/14 04:06:06;;;;;;;1.30;1.20;;;24.60;46.20;;;;;;4996947;28;20897;-61
2023/07/14 04:08:43;;;;;;;1.20;1.10;;;24.60;46.20;;;;;;4995260;28;20278;-63
2023/07/14 04:11:09;;;;;;;1.30;1.20;;;24.60;46.20;;;;;;4998049;28;20444;-62
2023/07/14 04:13:35;;;;;;;1.33;1.23;;;24.60;46.20;;;;;;4997047;28;20824;-62
2023/07/14 04:16:03;;;;;;;1.37;1.27;;;24.60;46.20;;;;;;4998119;28;20727;-63
2023/07/14 04:18:29;;;;;;;1.17;1.07;;;24.60;46.20;;;;;;4997016;28;20449;-62
2023/07/14 04:21:00;;;;;;;1.40;1.30;;;24.60;46.20;;;;;;4997696;28;21477;-62
2023/07/14 04:23:25;;;;;;;1.00;1.00;;;24.60;46.20;;;;;;4992876;28;20239;-62
2023/07/14 04:25:51;;;;;;;1.20;1.10;;;24.60;46.20;;;;;;4998434;28;20456;-62
2023/07/14 04:28:16;;;;;;;1.30;1.20;;;24.60;46.20;;;;;;4994788;28;20609;-62
2023/07/14 04:30:42;;;;;;;0.93;0.93;;;24.60;46.20;;;;;;4998594;28;20223;-62
2023/07/14 04:33:07;;;;;;;1.37;1.27;;;24.60;46.20;;;;;;4995375;28;20238;-62
2023/07/14 04:35:33;;;;;;;1.30;1.20;;;24.60;46.30;;;;;;4997994;28;20227;-62
2023/07/14 04:37:58;;;;;;;1.30;1.20;;;24.60;46.20;;;;;;4977577;28;20301;-62
2023/07/14 04:40:24;;;;;;;1.00;1.00;;;24.60;46.30;;;;;;4995234;28;20224;-62
2023/07/14 04:42:50;;;;;;;1.30;1.20;;;24.60;46.20;;;;;;4994815;28;20284;-62
2023/07/14 04:45:16;;;;;;;1.20;1.10;;;24.60;46.20;;;;;;4997505;28;20261;-63
2023/07/14 04:47:43;;;;;;;1.10;1.00;;;24.60;46.20;;;;;;4995394;28;20234;-62
2023/07/14 04:50:09;;;;;;;1.20;1.10;;;24.60;46.10;;;;;;4998865;28;20465;-62
2023/07/14 04:52:34;;;;;;;1.33;1.23;;;24.60;46.10;;;;;;4997449;28;20449;-62
2023/07/14 04:55:00;;;;;;;1.30;1.20;;;24.60;46.10;;;;;;4995474;28;20589;-62
2023/07/14 04:57:25;;;;;;;1.30;1.20;;;24.60;46.10;;;;;;4994700;28;20235;-61
2023/07/14 04:59:51;;;;;;;1.30;1.20;;;24.60;46.10;;;;;;4994641;28;20350;-64
2023/07/14 05:02:17;;;;;;;1.20;1.10;;;24.70;46.10;;;;;;4994370;28;20215;-62
2023/07/14 05:04:43;;;;;;;1.50;1.40;;;24.70;46.20;;;;;;4995405;28;20230;-62
2023/07/14 05:07:09;;;;;;;1.33;1.23;;;24.70;46.10;;;;;;4994109;28;20466;-62
2023/07/14 05:09:35;;;;;;;1.27;1.17;;;24.70;46.10;;;;;;4997358;28;20453;-62
2023/07/14 05:12:01;;;;;;;1.30;1.20;;;24.70;46.10;;;;;;4993803;28;20281;-61
2023/07/14 05:14:27;;;;;;;1.23;1.17;;;24.70;46.10;;;;;;4994169;28;20446;-63
2023/07/14 05:16:53;;;;;;;1.40;1.30;;;24.70;46.10;;;;;;4994530;28;20246;-62
2023/07/14 05:19:19;;;;;;;1.20;1.17;;;24.70;46.10;;;;;;4995585;28;20733;-63
2023/07/14 05:21:45;;;;;;;1.10;1.10;;;24.70;46.10;;;;;;4995796;28;20234;-62
2023/07/14 05:24:10;;;;;;;1.17;1.07;;;24.70;46.10;;;;;;4992356;28;20453;-64
2023/07/14 05:26:36;;;;;;;1.27;1.23;;;24.70;46.10;;;;;;4999539;28;20690;-62
2023/07/14 05:29:02;;;;;;;1.40;1.30;;;24.70;46.10;;;;;;4992979;28;20228;-63
2023/07/14 05:31:28;;;;;;;1.10;1.00;;;24.70;46.10;;;;;;4995489;28;21054;-62
2023/07/14 05:33:54;;;;;;;1.30;1.20;;;24.70;46.10;;;;;;4994934;28;20601;-62
2023/07/14 05:36:19;;;;;;;1.20;1.10;;;24.70;46.10;;;;;;4996158;28;20231;-65
2023/07/14 05:38:45;;;;;;;1.40;1.30;;;24.70;46.10;;;;;;4993200;28;20275;-62
2023/07/14 05:41:10;;;;;;;1.20;1.10;;;24.70;46.10;;;;;;4993822;28;20231;-63
2023/07/14 05:43:36;;;;;;;1.27;1.17;;;24.70;46.10;;;;;;4992899;28;20236;-63
2023/07/14 05:46:03;;;;;;;1.33;1.23;;;24.70;46.10;;;;;;4996034;28;20310;-62
2023/07/14 05:48:28;;;;;;;1.00;1.00;;;24.70;46.10;;;;;;4992460;28;20622;-64
2023/07/14 05:50:54;;;;;;;1.27;1.17;;;24.70;46.10;;;;;;4995941;28;20468;-62
2023/07/14 05:53:19;;;;;;;1.30;1.20;;;24.70;46.10;;;;;;4993772;28;20212;-62
2023/07/14 05:55:46;;;;;;;1.07;1.00;;;24.70;46.10;;;;;;4996837;28;20261;-62
2023/07/14 05:58:12;;;;;;;1.30;1.20;;;24.70;46.10;;;;;;4995219;28;20225;-62
2023/07/14 06:00:38;;;;;;;1.07;1.07;;;24.70;46.10;;;;;;4993368;28;20441;-62
2023/07/14 06:03:12;;;;;;;1.57;1.47;;;24.70;46.90;;;;;;4992856;28;20232;-62
2023/07/14 06:05:37;;;;;;;1.13;1.10;;;24.70;46.00;;;;;;4981734;28;20805;-62
2023/07/14 06:08:03;;;;;;;1.30;1.20;;;24.70;46.00;;;;;;4996365;28;20451;-63
2023/07/14 06:10:29;;;;;;;1.30;1.20;;;24.70;46.00;;;;;;4993082;28;20660;-63
2023/07/14 06:12:54;;;;;;;1.10;1.10;;;24.70;46.10;;;;;;4991315;28;20218;-64
2023/07/14 06:15:20;;;;;;;1.10;1.10;;;24.70;46.00;;;;;;4997489;28;20679;-62
2023/07/14 06:17:46;;;;;;;1.20;1.10;;;24.70;46.10;;;;;;4994100;28;20223;-62
2023/07/14 06:20:12;;;;;;;1.20;1.10;;;24.70;46.00;;;;;;4994486;28;20476;-62
2023/07/14 06:22:38;;;;;;;1.40;1.30;;;24.70;46.00;;;;;;4994464;28;21150;-63
2023/07/14 06:25:04;;;;;;;1.30;1.20;;;24.70;46.00;;;;;;4998330;28;20278;-63
2023/07/14 06:27:33;;;;;;;1.27;1.17;;;24.70;46.00;;;;;;4992397;28;20540;-63
2023/07/14 06:29:59;;;;;;;1.20;1.10;;;24.70;46.00;;;;;;4991710;28;20311;-62
2023/07/14 06:32:25;;;;;;;1.27;1.17;;;24.70;46.00;;;;;;4992126;28;20460;-63
2023/07/14 06:34:50;;;;;;;1.30;1.20;;;24.70;46.00;;;;;;4993601;28;20464;-62
2023/07/14 06:37:16;;;;;;;1.40;1.30;;;24.70;46.00;;;;;;4996975;28;20223;-62
2023/07/14 06:39:43;;;;;;;1.20;1.10;;;24.70;45.90;;;;;;4993017;28;20230;-63
2023/07/14 06:42:09;;;;;;;1.10;1.10;;;24.70;46.00;;;;;;4990803;28;20688;-62
2023/07/14 06:44:35;;;;;;;1.00;1.00;;;24.70;46.00;;;;;;4994397;28;20956;-62
2023/07/14 06:47:00;;;;;;;1.30;1.20;;;24.70;45.90;;;;;;4994387;28;20476;-62
2023/07/14 06:49:26;;;;;;;1.20;1.10;;;24.70;46.00;;;;;;4993808;28;27696;-64
2023/07/14 06:51:51;;;;;;;1.20;1.10;;;24.70;46.00;;;;;;4993603;28;20220;-62
2023/07/14 06:54:17;;;;;;;1.30;1.20;;;24.70;46.00;;;;;;4991828;28;20219;-63
2023/07/14 06:56:42;;;;;;;1.10;1.00;;;24.70;46.00;;;;;;4993897;28;20227;-63
2023/07/14 06:59:08;;;;;;;1.00;1.00;;;24.70;46.00;;;;;;4994757;28;20224;-62
2023/07/14 07:01:34;;;;;;;1.03;1.00;;;24.70;46.00;;;;;;4994081;28;21126;-62
2023/07/14 07:03:59;;;;;;;1.20;1.10;;;24.70;46.00;;;;;;4992977;28;20293;-63
2023/07/14 07:06:25;;;;;;;1.20;1.10;;;24.70;46.00;;;;;;4993786;28;20222;-63
2023/07/14 07:08:50;;;;;;;1.43;1.33;;;24.70;46.00;;;;;;4992765;28;20231;-63
2023/07/14 07:11:16;;;;;;;1.40;1.30;;;24.70;46.00;;;;;;4994097;28;20228;-62
2023/07/14 07:13:41;;;;;;;1.30;1.20;;;24.70;46.00;;;;;;4993454;28;20223;-63
2023/07/14 07:16:07;;;;;;;1.40;1.27;;;24.70;46.00;;;;;;4995521;28;20315;-64
2023/07/14 07:18:33;;;;;;;1.30;1.20;;;24.70;46.00;;;;;;4995198;28;20219;-63
2023/07/14 07:20:59;;;;;;;1.30;1.20;;;24.80;46.10;;;;;;4991371;28;20239;-62
2023/07/14 07:23:25;;;;;;;1.30;1.20;;;24.80;46.10;;;;;;4992821;28;20307;-63
2023/07/14 07:25:53;;;;;;;1.00;1.00;;;24.80;46.10;;;;;;4995776;28;20219;-63
2023/07/14 07:28:19;;;;;;;0.90;0.90;;;24.70;46.00;;;;;;4996978;28;20571;-62
2023/07/14 07:30:46;;;;;;;1.23;1.13;;;24.70;46.00;;;;;;4994502;28;20972;-63
2023/07/14 07:33:13;;;;;;;1.30;1.20;;;24.80;46.10;;;;;;4998462;28;20693;-62
2023/07/14 07:35:40;;;;;;;1.17;1.10;;;24.80;46.00;;;;;;4995445;28;20457;-62
2023/07/14 07:38:07;;;;;;;1.30;1.20;;;24.80;46.00;;;;;;4999646;28;20456;-63
2023/07/14 07:40:33;;;;;;;1.20;1.10;;;24.80;46.10;;;;;;4983679;28;20456;-62
2023/07/14 07:43:01;;;;;;;1.30;1.20;;;24.80;46.10;;;;;;4995339;28;20498;-62
2023/07/14 07:45:27;;;;;;;1.03;1.00;;;24.80;46.00;;;;;;4999644;28;20417;-63
2023/07/14 07:47:52;;;;;;;1.33;1.23;;;24.80;46.10;;;;;;4995533;28;20489;-62
2023/07/14 07:50:18;;;;;;;1.03;1.03;;;24.80;46.00;;;;;;4998045;28;20618;-62
2023/07/14 07:52:45;;;;;;;1.20;1.17;;;24.80;46.00;;;;;;4997559;28;20251;-62
2023/07/14 07:55:10;;;;;;;1.50;1.40;;;24.80;46.00;;;;;;4998637;28;20226;-62
2023/07/14 07:57:36;;;;;;;1.40;1.30;;;24.80;46.00;;;;;;4996777;28;20444;-63
2023/07/14 08:00:03;;;;;;;1.37;1.27;;;24.80;46.10;;;;;;4997485;28;20223;-62
2023/07/14 08:02:29;;;;;;;0.90;0.90;;;24.80;46.00;;;;;;4997119;28;20843;-63
2023/07/14 08:04:54;;;;;;;1.30;1.20;;;24.80;46.00;;;;;;4997949;28;20468;-62
2023/07/14 08:07:20;;;;;;;1.30;1.20;;;24.80;46.00;;;;;;5000148;28;20614;-62
2023/07/14 08:09:45;;;;;;;1.20;1.10;;;24.80;46.00;;;;;;4995575;28;20252;-63
2023/07/14 08:12:11;;;;;;;1.30;1.20;;;24.80;46.00;;;;;;5000647;28;20223;-64
2023/07/14 08:14:54;;;;;;;1.10;1.10;;;24.80;46.00;;;;;;5001475;28;20230;-62
2023/07/14 08:17:24;;;;;;;1.50;1.40;;;24.80;46.00;;;;;;4997222;28;20282;-63
2023/07/14 08:19:50;;;;;;;1.33;1.23;;;24.80;46.00;;;;;;4982770;28;20805;-62
2023/07/14 08:22:16;;;;;;;1.20;1.10;;;24.80;46.00;;;;;;4997148;28;20459;-62
2023/07/14 08:24:42;;;;;;;1.20;1.10;;;24.80;46.00;;;;;;4998323;28;20343;-63
2023/07/14 08:27:07;;;;;;;1.07;1.00;;;24.80;46.10;;;;;;5000645;28;20583;-62
2023/07/14 08:29:33;;;;;;;1.20;1.10;;;24.80;46.00;;;;;;4997737;28;20255;-63
2023/07/14 08:31:59;;;;;;;1.20;1.10;;;24.80;46.00;;;;;;4997860;28;20304;-63
2023/07/14 08:34:27;;;;;;;1.00;1.00;;;24.80;46.00;;;;;;4997517;28;20888;-63
2023/07/14 08:36:53;;;;;;;1.30;1.20;;;24.80;46.00;;;;;;5000115;28;20231;-63
2023/07/14 08:39:18;;;;;;;1.30;1.20;;;24.80;46.00;;;;;;4997682;28;20614;-62
2023/07/14 08:41:46;;;;;;;1.00;1.00;;;24.80;46.00;;;;;;4999769;28;20536;-63
2023/07/14 08:44:41;;;;;;;1.10;1.10;;;24.80;46.00;;;;;;4997620;28;20243;-62
2023/07/14 08:47:22;;;;;;;0.90;0.90;;;24.80;46.00;;;;;;4999140;28;20508;-64
2023/07/14 08:50:01;;;;;;;1.00;1.00;;;24.80;46.00;;;;;;4996873;28;20995;-62
2023/07/14 08:52:32;;;;;;;1.33;1.23;;;24.80;46.00;;;;;;4996872;28;20456;-63
2023/07/14 08:55:03;;;;;;;1.17;1.07;;;24.80;46.00;;;;;;4998018;28;21465;-63
2023/07/14 08:57:31;;;;;;;1.37;1.27;;;24.80;46.00;;;;;;4996649;28;21036;-62
2023/07/14 09:00:00;;;;;;;1.20;1.10;;;24.80;46.00;;;;;;4997215;28;20460;-62
2023/07/14 09:02:39;;;;;;;1.33;1.23;;;24.80;46.00;;;;;;4998283;28;20462;-62
2023/07/14 09:05:28;;;;;;;1.20;1.10;;;24.80;46.00;;;;;;4997302;28;20472;-62
2023/07/14 09:07:54;;;;;;;1.30;1.20;;;24.80;46.00;;;;;;4987776;28;20453;-62
2023/07/14 09:10:36;;;;;;;1.20;1.10;;;24.80;46.00;;;;;;4998988;28;21003;-63
2023/07/14 09:13:15;;;;;;;1.57;1.47;;;24.80;46.00;;;;;;4992562;28;20463;-62
2023/07/14 09:15:41;;;;;;;1.30;1.20;;;24.80;46.00;;;;;;4998677;28;20515;-63
2023/07/14 09:18:38;;;;;;;1.13;1.10;;;24.80;46.00;;;;;;4981096;28;21024;-62
2023/07/14 09:21:15;;;;;;;1.30;1.20;;;24.80;46.00;;;;;;4996249;28;21019;-62
2023/07/14 09:24:09;;;;;;;1.10;1.00;;;24.80;45.90;;;;;;4993833;28;20458;-62
2023/07/14 09:26:41;;;;;;;1.00;1.00;;;24.80;45.90;;;;;;4997912;28;20556;-62
2023/07/14 09:29:18;;;;;;;1.20;1.10;;;24.80;46.00;;;;;;4994271;28;20445;-62
2023/07/14 09:32:03;;;;;;;1.20;1.10;;;24.80;45.90;;;;;;4986118;28;20467;-63
2023/07/14 09:34:46;;;;;;;1.27;1.17;;;24.80;46.00;;;;;;4994587;28;21503;-64
2023/07/14 09:37:19;;;;;;;1.80;1.70;;;24.80;46.00;;;;;;4996394;28;20968;-62
2023/07/14 09:39:47;;;;;;;1.20;1.10;;;24.80;45.90;;;;;;4995346;28;20463;-63
2023/07/14 09:42:36;;;;;;;1.50;1.40;;;24.80;45.90;;;;;;4994425;28;20491;-63
2023/07/14 09:45:14;;;;;;;1.27;1.17;;;24.80;45.90;;;;;;4999285;28;20471;-62
2023/07/14 09:47:43;;;;;;;1.30;1.20;;;24.80;46.00;;;;;;4993420;28;20457;-62
2023/07/14 09:50:14;;;;;;;1.20;1.10;;;24.80;46.00;;;;;;4995118;28;20452;-62
2023/07/14 09:52:52;;;;;;;0.90;0.90;;;24.90;46.00;;;;;;4996436;28;20453;-62
2023/07/14 09:55:19;;;;;;;1.10;1.10;;;24.80;45.90;;;;;;4994612;28;20465;-64
2023/07/14 09:57:46;;;;;;;1.20;1.10;;;24.90;46.00;;;;;;4995206;28;20457;-63
2023/07/14 10:00:22;;;;;;;1.10;1.10;;;24.80;45.90;;;;;;4997081;28;20467;-63
2023/07/14 10:03:01;;;;;;;1.20;1.10;;;24.80;45.90;;;;;;4994482;28;20484;-63
2023/07/14 10:05:34;;;;;;;1.20;1.10;;;24.80;45.80;;;;;;4995924;28;20441;-62
2023/07/14 10:08:02;;;;;;;1.17;1.07;;;24.80;45.80;;;;;;4992771;28;20484;-63
2023/07/14 10:10:28;;;;;;;1.30;1.20;;;24.80;45.90;;;;;;4995535;28;20874;-62
2023/07/14 10:12:54;;;;;;;1.27;1.17;;;24.80;45.90;;;;;;4994879;28;20453;-62
2023/07/14 10:15:32;;;;;;;1.37;1.27;;;24.80;45.80;;;;;;4997787;28;20456;-62
2023/07/14 10:18:01;;;;;;;1.30;1.20;;;24.80;45.80;;;;;;4995162;28;20229;-63
2023/07/14 10:20:27;;;;;;;1.17;1.07;;;24.80;45.90;;;;;;4995292;28;20487;-63
2023/07/14 10:22:56;;;;;;;1.30;1.20;;;24.80;45.90;;;;;;4997345;28;20470;-64
2023/07/14 10:25:23;;;;;;;1.20;1.10;;;24.90;45.90;;;;;;4996321;28;20464;-62
2023/07/14 10:27:57;;;;;;;1.30;1.20;;;24.80;45.90;;;;;;4995696;28;20480;-62
2023/07/14 10:30:47;;;;;;;1.50;1.40;;;24.80;45.80;;;;;;4995720;28;20499;-63
2023/07/14 10:33:45;;;;;;;1.20;1.10;;;24.90;45.90;;;;;;4994828;28;20934;-62
2023/07/14 10:36:20;;;;;;;1.20;1.10;;;24.90;45.90;;;;;;4981278;28;20464;-63
2023/07/14 10:38:54;;;;;;;1.33;1.23;;;24.90;45.90;;;;;;4993303;28;20453;-62
2023/07/14 10:41:24;;;;;;;1.10;1.00;;;24.90;45.90;;;;;;4978921;28;20942;-63
2023/07/14 10:44:01;;;;;;;1.03;1.03;;;24.90;45.90;;;;;;4992538;28;20469;-63
2023/07/14 10:46:39;;;;;;;1.00;1.00;;;24.80;45.80;;;;;;4993500;28;20440;-63
2023/07/14 10:49:20;;;;;;;1.10;1.10;;;24.90;45.90;;;;;;4998499;28;20440;-62
2023/07/14 10:51:55;;;;;;;1.20;1.10;;;24.90;45.90;;;;;;4995844;28;20458;-63
2023/07/14 10:54:46;;;;;;;1.40;1.30;;;24.90;45.90;;;;;;4995026;28;20562;-63
2023/07/14 10:57:20;;;;;;;1.30;1.20;;;24.90;45.90;;;;;;4988751;28;20463;-62
2023/07/14 10:59:53;;;;;;;1.60;1.50;;;24.80;45.80;;;;;;4993563;28;21214;-63
2023/07/14 11:02:34;;;;;;;1.20;1.10;;;24.90;46.60;;;;;;4994560;28;21301;-62
2023/07/14 11:05:05;;;;;;;1.40;1.30;;;24.90;45.90;;;;;;4995457;28;20451;-62
2023/07/14 11:07:33;;;;;;;1.20;1.10;;;24.90;45.80;;;;;;4998977;28;20448;-63
2023/07/14 11:10:00;;;;;;;1.30;1.20;;;24.90;45.80;;;;;;5000678;28;20441;-64
2023/07/14 11:12:53;;;;;;;1.33;1.23;;;24.90;45.80;;;;;;4989813;28;20535;-62
2023/07/14 11:15:23;;;;;;;1.27;1.17;;;24.90;45.80;;;;;;5000220;28;20464;-62
2023/07/14 11:18:03;;;;;;;1.20;1.10;;;24.90;45.90;;;;;;4998692;28;20957;-63
2023/07/14 11:20:44;;;;;;;1.30;1.20;;;24.90;45.80;;;;;;4997930;28;20511;-63
2023/07/14 11:23:31;;;;;;;1.27;1.17;;;24.90;45.90;;;;;;4998638;28;20615;-62
2023/07/14 11:26:17;;;;;;;1.30;1.20;;;24.90;45.80;;;;;;4985678;28;20810;-62
2023/07/14 11:29:05;;;;;;;1.13;1.07;;;24.90;45.80;;;;;;4998948;28;20495;-62
2023/07/14 11:31:36;;;;;;;1.30;1.20;;;24.90;45.80;;;;;;5001134;28;20492;-62
2023/07/14 11:34:14;;;;;;;1.20;1.10;;;24.80;45.70;;;;;;4987937;28;20450;-62
2023/07/14 11:36:52;;;;;;;1.37;1.27;;;24.90;45.80;;;;;;5000948;28;20444;-63
2023/07/14 11:39:36;;;;;;;1.63;1.40;;;24.90;45.80;;;;;;4997286;28;20571;-62
2023/07/14 11:42:02;;;;;;;1.50;1.40;;;24.90;45.80;;;;;;5001103;28;20449;-62
2023/07/14 11:44:28;;;;;;;1.10;1.00;;;24.90;45.80;;;;;;4998055;28;20990;-62
2023/07/14 11:46:54;;;;;;;1.33;1.23;;;24.90;45.80;;;;;;4999355;28;20235;-64
2023/07/14 11:49:34;;;;;;;1.27;1.17;;;24.90;45.80;;;;;;4999376;28;20269;-62
2023/07/14 11:52:10;;;;;;;1.20;1.10;;;24.90;45.80;;;;;;4999448;28;20224;-63
2023/07/14 11:54:42;;;;;;;1.20;1.10;;;24.90;45.80;;;;;;4997033;28;20456;-63
2023/07/14 11:57:16;;;;;;;1.00;1.00;;;24.90;45.80;;;;;;4996458;28;20548;-62
2023/07/14 12:00:06;;;;;;;1.13;1.03;;;24.90;45.80;;;;;;4997468;28;20500;-64
2023/07/14 12:02:45;;;;;;;1.30;1.20;;;24.90;45.80;;;;;;4994011;28;20963;-62
2023/07/14 12:05:13;;;;;;;1.10;1.00;;;24.90;45.80;;;;;;4998803;28;20531;-62
2023/07/14 12:08:02;;;;;;;1.17;1.07;;;24.90;45.80;;;;;;4995266;28;20543;-62
2023/07/14 12:10:42;;;;;;;1.30;1.20;;;24.90;45.80;;;;;;4998799;28;20457;-63
2023/07/14 12:13:22;;;;;;;1.20;1.10;;;24.90;45.80;;;;;;4995891;28;20996;-64
2023/07/14 12:16:12;;;;;;;1.23;1.13;;;24.90;45.80;;;;;;4999326;28;20452;-63
2023/07/14 12:18:57;;;;;;;0.90;0.90;;;24.90;45.80;;;;;;4996962;28;21057;-62
2023/07/14 12:21:26;;;;;;;1.00;1.00;;;24.90;45.80;;;;;;4999408;28;20465;-62
2023/07/14 12:24:02;;;;;;;1.13;1.10;;;24.90;45.70;;;;;;4996122;28;20469;-64
2023/07/14 12:26:38;;;;;;;1.20;1.10;;;24.90;45.80;;;;;;4999562;28;20444;-63
2023/07/14 12:29:16;;;;;;;1.40;1.30;;;24.90;45.80;;;;;;4997132;28;20440;-62
2023/07/14 12:31:47;;;;;;;1.27;1.17;;;24.90;45.70;;;;;;4997868;28;20510;-62
2023/07/14 12:34:18;;;;;;;1.10;1.00;;;24.90;45.70;;;;;;4997288;28;20468;-63
2023/07/14 12:36:45;;;;;;;1.20;1.10;;;24.90;45.80;;;;;;4996391;28;20536;-63
2023/07/14 12:39:11;;;;;;;1.10;1.00;;;24.90;45.80;;;;;;4993848;28;20622;-63
2023/07/14 12:41:41;;;;;;;1.40;1.30;;;24.90;45.70;;;;;;5001370;28;20456;-63
2023/07/14 12:44:37;;;;;;;1.50;1.40;;;24.90;45.80;;;;;;4993995;28;20483;-63
2023/07/14 12:47:03;;;;;;;1.27;1.17;;;25.00;45.80;;;;;;4979882;28;20453;-63
2023/07/14 12:49:40;;;;;;;1.30;1.20;;;24.90;45.80;;;;;;4997754;28;20461;-63
2023/07/14 12:52:11;;;;;;;1.80;1.70;;;24.90;45.70;;;;;;4995842;28;20227;-63
2023/07/14 12:54:45;;;;;;;1.20;1.10;;;25.00;45.90;;;;;;4998376;28;20459;-63
2023/07/14 12:57:17;;;;;;;1.63;1.53;;;24.90;45.70;;;;;;4997364;28;20448;-63
2023/07/14 12:59:50;;;;;;;1.30;1.20;;;25.00;45.80;;;;;;4997636;28;20470;-64
2023/07/14 13:02:16;;;;;;;1.20;1.10;;;24.90;45.70;;;;;;4996402;28;20957;-62